ALI2255 GLMR-GABS
Flight info
| Callsign | ALI2255 |
|---|---|
| Flight time | 1h 6m |
| Altitude | 35000 |
| Route | INOVO UG852 MOPAL MOPAL5G |
| Aircraft | B752/M-SDE2E3FGHIJ3J4J7RWXY/LB1 |
Departure
| Time | 2026-05-05 13:55 |
|---|---|
| Airport | Spriggs Payne Airport (GLMR) |
Arrival
| Time | 2026-05-05 15:02 |
|---|---|
| Airport | Modibo Keita International Airport (GABS) |
| Time | Latitude | Longitude | Altitude | Speed | Heading |
|---|---|---|---|---|---|
| 2026-05-05 13:32 | 6.28693 | -10.76216 | 42 ft | 0 kts | 129° |
| 2026-05-05 13:52 | 6.28665 | -10.76180 | 40 ft | 11 kts | 128° |
| 2026-05-05 13:52 | 6.28604 | -10.76131 | 39 ft | 10 kts | 188° |
| 2026-05-05 13:52 | 6.28543 | -10.76166 | 40 ft | 9 kts | 217° |
| 2026-05-05 13:52 | 6.28497 | -10.76200 | 41 ft | 9 kts | 216° |
| 2026-05-05 13:53 | 6.28428 | -10.76254 | 42 ft | 13 kts | 218° |
| 2026-05-05 13:53 | 6.28359 | -10.76309 | 43 ft | 11 kts | 218° |
| 2026-05-05 13:53 | 6.28298 | -10.76358 | 43 ft | 10 kts | 218° |
| 2026-05-05 13:53 | 6.28263 | -10.76388 | 43 ft | 1 kts | 252° |
| 2026-05-05 13:54 | 6.28268 | -10.76397 | 43 ft | 1 kts | 325° |
| 2026-05-05 13:54 | 6.28283 | -10.76392 | 43 ft | 5 kts | 57° |
| 2026-05-05 13:54 | 6.28300 | -10.76367 | 43 ft | 0 kts | 38° |
| 2026-05-05 13:55 | 6.28422 | -10.76270 | 42 ft | 59 kts | 38° |
| 2026-05-05 13:55 | 6.28960 | -10.75842 | 38 ft | 135 kts | 38° |
| 2026-05-05 13:55 | 6.29836 | -10.75131 | 291 ft | 178 kts | 39° |
| 2026-05-05 13:55 | 6.30789 | -10.74392 | 1334 ft | 169 kts | 37° |
| 2026-05-05 13:56 | 6.31415 | -10.73940 | 1567 ft | 178 kts | 36° |
| 2026-05-05 13:56 | 6.32530 | -10.73136 | 1653 ft | 208 kts | 36° |
| 2026-05-05 13:56 | 6.33768 | -10.72232 | 1899 ft | 232 kts | 37° |
| 2026-05-05 13:56 | 6.35593 | -10.70891 | 2533 ft | 251 kts | 38° |
| 2026-05-05 13:57 | 6.36984 | -10.69831 | 3265 ft | 254 kts | 38° |
| 2026-05-05 13:57 | 6.38457 | -10.68730 | 3746 ft | 269 kts | 38° |
| 2026-05-05 13:57 | 6.39924 | -10.67640 | 4661 ft | 265 kts | 39° |
| 2026-05-05 13:57 | 6.41405 | -10.66528 | 5379 ft | 270 kts | 39° |
| 2026-05-05 13:58 | 6.42907 | -10.65400 | 6212 ft | 268 kts | 39° |
| 2026-05-05 13:58 | 6.43904 | -10.64651 | 6706 ft | 269 kts | 39° |
| 2026-05-05 13:58 | 6.45889 | -10.63158 | 7726 ft | 270 kts | 40° |
| 2026-05-05 13:58 | 6.47394 | -10.62026 | 8480 ft | 270 kts | 40° |
| 2026-05-05 13:59 | 6.50400 | -10.59763 | 9927 ft | 273 kts | 41° |
| 2026-05-05 13:59 | 6.51423 | -10.58992 | 10327 ft | 277 kts | 41° |
| 2026-05-05 14:00 | 6.55315 | -10.56056 | 11020 ft | 318 kts | 40° |
| 2026-05-05 14:00 | 6.56497 | -10.55168 | 11505 ft | 319 kts | 40° |
| 2026-05-05 14:00 | 6.58277 | -10.53829 | 12133 ft | 322 kts | 40° |
| 2026-05-05 14:00 | 6.60102 | -10.52456 | 12785 ft | 325 kts | 40° |
| 2026-05-05 14:01 | 6.61898 | -10.51104 | 13368 ft | 328 kts | 40° |
| 2026-05-05 14:01 | 6.63762 | -10.49699 | 13913 ft | 333 kts | 40° |
| 2026-05-05 14:01 | 6.66245 | -10.47829 | 14626 ft | 338 kts | 40° |
| 2026-05-05 14:01 | 6.68139 | -10.46401 | 15143 ft | 342 kts | 40° |
| 2026-05-05 14:02 | 6.70064 | -10.44950 | 15621 ft | 346 kts | 40° |
| 2026-05-05 14:02 | 6.72011 | -10.43483 | 16114 ft | 350 kts | 40° |
| 2026-05-05 14:02 | 6.73945 | -10.42026 | 16598 ft | 353 kts | 40° |
| 2026-05-05 14:02 | 6.75930 | -10.40529 | 16990 ft | 358 kts | 40° |
| 2026-05-05 14:03 | 6.77927 | -10.39023 | 17445 ft | 362 kts | 40° |
| 2026-05-05 14:03 | 6.79973 | -10.37480 | 17881 ft | 366 kts | 39° |
| 2026-05-05 14:03 | 6.82005 | -10.35948 | 18335 ft | 369 kts | 39° |
| 2026-05-05 14:03 | 6.84075 | -10.34387 | 18769 ft | 373 kts | 39° |
| 2026-05-05 14:04 | 6.86160 | -10.32814 | 19208 ft | 376 kts | 39° |
| 2026-05-05 14:04 | 6.88277 | -10.31218 | 19671 ft | 379 kts | 38° |
| 2026-05-05 14:04 | 6.90407 | -10.29611 | 20057 ft | 383 kts | 38° |
| 2026-05-05 14:04 | 6.91831 | -10.28536 | 20348 ft | 385 kts | 38° |
| 2026-05-05 14:05 | 6.93980 | -10.26916 | 20744 ft | 388 kts | 38° |
| 2026-05-05 14:05 | 6.96149 | -10.25279 | 21133 ft | 391 kts | 38° |
| 2026-05-05 14:05 | 6.99070 | -10.23074 | 21630 ft | 395 kts | 37° |
| 2026-05-05 14:05 | 7.01290 | -10.21399 | 21950 ft | 400 kts | 37° |
| 2026-05-05 14:06 | 7.03530 | -10.19707 | 22345 ft | 402 kts | 37° |
| 2026-05-05 14:06 | 7.05755 | -10.18028 | 22719 ft | 405 kts | 37° |
| 2026-05-05 14:06 | 7.08015 | -10.16322 | 23183 ft | 405 kts | 37° |
| 2026-05-05 14:06 | 7.10284 | -10.14609 | 23521 ft | 409 kts | 37° |
| 2026-05-05 14:07 | 7.12559 | -10.12890 | 23930 ft | 410 kts | 37° |
| 2026-05-05 14:07 | 7.14843 | -10.11165 | 24338 ft | 412 kts | 37° |
| 2026-05-05 14:07 | 7.17152 | -10.09420 | 24767 ft | 413 kts | 37° |
| 2026-05-05 14:07 | 7.19462 | -10.07675 | 25073 ft | 417 kts | 37° |
| 2026-05-05 14:08 | 7.21021 | -10.06497 | 25377 ft | 417 kts | 37° |
| 2026-05-05 14:08 | 7.24112 | -10.04161 | 25832 ft | 420 kts | 37° |
| 2026-05-05 14:08 | 7.26461 | -10.02386 | 26215 ft | 422 kts | 37° |
| 2026-05-05 14:08 | 7.28822 | -10.00601 | 26544 ft | 424 kts | 37° |
| 2026-05-05 14:09 | 7.31188 | -9.98812 | 26902 ft | 426 kts | 37° |
| 2026-05-05 14:09 | 7.33579 | -9.97004 | 27199 ft | 428 kts | 37° |
| 2026-05-05 14:09 | 7.35969 | -9.95196 | 27569 ft | 429 kts | 37° |
| 2026-05-05 14:09 | 7.38349 | -9.93396 | 27853 ft | 431 kts | 37° |
| 2026-05-05 14:10 | 7.40789 | -9.91636 | 28126 ft | 433 kts | 31° |
| 2026-05-05 14:10 | 7.43487 | -9.90256 | 28456 ft | 433 kts | 22° |
| 2026-05-05 14:10 | 7.46314 | -9.89128 | 28742 ft | 435 kts | 21° |
| 2026-05-05 14:10 | 7.49127 | -9.88009 | 28952 ft | 438 kts | 21° |
| 2026-05-05 14:11 | 7.51961 | -9.86892 | 29225 ft | 440 kts | 21° |
| 2026-05-05 14:11 | 7.54833 | -9.85766 | 29438 ft | 443 kts | 21° |
| 2026-05-05 14:11 | 7.57730 | -9.84633 | 29695 ft | 444 kts | 21° |
| 2026-05-05 14:11 | 7.60623 | -9.83503 | 29990 ft | 444 kts | 21° |
| 2026-05-05 14:12 | 7.63507 | -9.82378 | 30146 ft | 448 kts | 21° |
| 2026-05-05 14:12 | 7.66426 | -9.81240 | 30451 ft | 447 kts | 21° |
| 2026-05-05 14:12 | 7.71273 | -9.79350 | 30745 ft | 451 kts | 20° |
| 2026-05-05 14:13 | 7.74216 | -9.78204 | 30956 ft | 453 kts | 20° |
| 2026-05-05 14:13 | 7.78165 | -9.76665 | 31216 ft | 455 kts | 20° |
| 2026-05-05 14:13 | 7.81114 | -9.75515 | 31557 ft | 452 kts | 20° |
| 2026-05-05 14:13 | 7.84058 | -9.74367 | 31862 ft | 451 kts | 20° |
| 2026-05-05 14:14 | 7.86965 | -9.73236 | 32125 ft | 451 kts | 20° |
| 2026-05-05 14:14 | 7.89908 | -9.72119 | 32423 ft | 450 kts | 19° |
| 2026-05-05 14:14 | 7.92856 | -9.71002 | 32638 ft | 450 kts | 19° |
| 2026-05-05 14:14 | 7.95792 | -9.69889 | 32940 ft | 449 kts | 19° |
| 2026-05-05 14:15 | 7.98726 | -9.68777 | 33157 ft | 450 kts | 19° |
| 2026-05-05 14:15 | 8.01667 | -9.67661 | 33416 ft | 450 kts | 19° |
| 2026-05-05 14:15 | 8.04604 | -9.66547 | 33706 ft | 450 kts | 19° |
| 2026-05-05 14:15 | 8.07533 | -9.65435 | 33980 ft | 450 kts | 20° |
| 2026-05-05 14:16 | 8.10424 | -9.64338 | 34282 ft | 449 kts | 19° |
| 2026-05-05 14:16 | 8.13388 | -9.63213 | 34544 ft | 449 kts | 20° |
| 2026-05-05 14:16 | 8.16319 | -9.62101 | 34819 ft | 449 kts | 20° |
| 2026-05-05 14:16 | 8.19255 | -9.60985 | 34978 ft | 446 kts | 20° |
| 2026-05-05 14:17 | 8.25041 | -9.58787 | 34973 ft | 445 kts | 19° |
| 2026-05-05 14:17 | 8.29901 | -9.56942 | 34979 ft | 448 kts | 19° |
| 2026-05-05 14:18 | 8.36697 | -9.54359 | 34979 ft | 446 kts | 20° |
| 2026-05-05 14:18 | 8.42537 | -9.52139 | 34985 ft | 447 kts | 19° |
| 2026-05-05 14:19 | 8.48354 | -9.49926 | 34981 ft | 448 kts | 19° |
| 2026-05-05 14:19 | 8.54221 | -9.47696 | 34991 ft | 448 kts | 19° |
| 2026-05-05 14:20 | 8.59084 | -9.45845 | 34990 ft | 447 kts | 19° |
| 2026-05-05 14:20 | 8.65866 | -9.43263 | 35001 ft | 447 kts | 19° |
| 2026-05-05 14:21 | 8.71721 | -9.41034 | 35012 ft | 448 kts | 19° |
| 2026-05-05 14:21 | 8.77539 | -9.38818 | 35021 ft | 448 kts | 19° |
| 2026-05-05 14:22 | 8.83407 | -9.36583 | 35025 ft | 448 kts | 19° |
| 2026-05-05 14:22 | 8.89244 | -9.34357 | 35034 ft | 448 kts | 19° |
| 2026-05-05 14:23 | 8.95072 | -9.32136 | 35039 ft | 447 kts | 19° |
| 2026-05-05 14:23 | 9.00892 | -9.29916 | 35041 ft | 448 kts | 19° |
| 2026-05-05 14:24 | 9.05776 | -9.28037 | 35035 ft | 449 kts | 20° |
| 2026-05-05 14:24 | 9.12509 | -9.25277 | 35026 ft | 448 kts | 21° |
| 2026-05-05 14:25 | 9.18328 | -9.22892 | 35012 ft | 448 kts | 20° |
| 2026-05-05 14:25 | 9.24098 | -9.20528 | 35002 ft | 448 kts | 21° |
| 2026-05-05 14:26 | 9.29875 | -9.18161 | 34999 ft | 448 kts | 20° |
| 2026-05-05 14:26 | 9.35691 | -9.15776 | 34988 ft | 448 kts | 21° |
| 2026-05-05 14:27 | 9.41458 | -9.13410 | 34978 ft | 448 kts | 20° |
| 2026-05-05 14:27 | 9.47247 | -9.11035 | 34966 ft | 448 kts | 20° |
| 2026-05-05 14:28 | 9.53035 | -9.08659 | 34963 ft | 448 kts | 20° |
| 2026-05-05 14:28 | 9.58840 | -9.06275 | 34955 ft | 448 kts | 20° |
| 2026-05-05 14:29 | 9.63675 | -9.04289 | 34947 ft | 449 kts | 20° |
| 2026-05-05 14:29 | 9.70400 | -9.01526 | 34954 ft | 448 kts | 20° |
| 2026-05-05 14:30 | 9.75219 | -8.99545 | 34957 ft | 448 kts | 20° |
| 2026-05-05 14:30 | 9.81998 | -8.96758 | 34956 ft | 448 kts | 20° |
| 2026-05-05 14:31 | 9.87765 | -8.94386 | 34944 ft | 448 kts | 20° |
| 2026-05-05 14:31 | 9.93538 | -8.92010 | 34942 ft | 447 kts | 20° |
| 2026-05-05 14:32 | 9.99335 | -8.89623 | 34937 ft | 447 kts | 20° |
| 2026-05-05 14:32 | 10.05107 | -8.87246 | 34929 ft | 447 kts | 20° |
| 2026-05-05 14:33 | 10.10863 | -8.84874 | 34926 ft | 449 kts | 20° |
| 2026-05-05 14:33 | 10.16676 | -8.82478 | 34925 ft | 449 kts | 20° |
| 2026-05-05 14:34 | 10.22467 | -8.80091 | 34923 ft | 449 kts | 20° |
| 2026-05-05 14:34 | 10.27270 | -8.78109 | 34923 ft | 448 kts | 20° |
| 2026-05-05 14:35 | 10.33063 | -8.75719 | 34922 ft | 448 kts | 20° |
| 2026-05-05 14:35 | 10.39845 | -8.72920 | 34914 ft | 449 kts | 20° |
| 2026-05-05 14:36 | 10.45644 | -8.70525 | 34907 ft | 448 kts | 20° |
| 2026-05-05 14:36 | 10.51421 | -8.68208 | 34908 ft | 448 kts | 16° |
| 2026-05-05 14:37 | 10.54402 | -8.67232 | 34640 ft | 452 kts | 15° |
| 2026-05-05 14:37 | 10.57363 | -8.66250 | 34544 ft | 439 kts | 16° |
| 2026-05-05 14:37 | 10.60272 | -8.65282 | 33900 ft | 433 kts | 16° |
| 2026-05-05 14:37 | 10.63113 | -8.64333 | 33306 ft | 428 kts | 16° |
| 2026-05-05 14:38 | 10.65935 | -8.63390 | 32732 ft | 427 kts | 16° |
| 2026-05-05 14:38 | 10.68776 | -8.62439 | 32205 ft | 429 kts | 16° |
| 2026-05-05 14:38 | 10.71598 | -8.61494 | 31687 ft | 433 kts | 16° |
| 2026-05-05 14:38 | 10.74497 | -8.60523 | 31160 ft | 435 kts | 16° |
| 2026-05-05 14:39 | 10.77375 | -8.59557 | 30636 ft | 434 kts | 16° |
| 2026-05-05 14:39 | 10.80233 | -8.58598 | 30127 ft | 430 kts | 16° |
| 2026-05-05 14:39 | 10.83054 | -8.57650 | 29620 ft | 424 kts | 16° |
| 2026-05-05 14:39 | 10.85849 | -8.56711 | 29109 ft | 418 kts | 16° |
| 2026-05-05 14:40 | 10.87683 | -8.56095 | 28779 ft | 415 kts | 16° |
| 2026-05-05 14:40 | 10.91318 | -8.54875 | 28149 ft | 409 kts | 16° |
| 2026-05-05 14:40 | 10.94025 | -8.53965 | 27687 ft | 408 kts | 16° |
| 2026-05-05 14:40 | 10.96738 | -8.53054 | 27221 ft | 408 kts | 16° |
| 2026-05-05 14:41 | 10.98501 | -8.52461 | 26917 ft | 407 kts | 16° |
| 2026-05-05 14:41 | 11.02086 | -8.51256 | 26290 ft | 405 kts | 17° |
| 2026-05-05 14:41 | 11.04783 | -8.50350 | 25817 ft | 402 kts | 17° |
| 2026-05-05 14:41 | 11.07421 | -8.49463 | 25347 ft | 400 kts | 17° |
| 2026-05-05 14:42 | 11.10064 | -8.48574 | 24880 ft | 398 kts | 17° |
| 2026-05-05 14:42 | 11.12699 | -8.47687 | 24413 ft | 397 kts | 17° |
| 2026-05-05 14:42 | 11.15303 | -8.46811 | 23941 ft | 396 kts | 18° |
| 2026-05-05 14:42 | 11.17920 | -8.45930 | 23466 ft | 395 kts | 18° |
| 2026-05-05 14:43 | 11.20529 | -8.44988 | 22974 ft | 392 kts | 25° |
| 2026-05-05 14:43 | 11.22907 | -8.43695 | 22515 ft | 389 kts | 26° |
| 2026-05-05 14:43 | 11.25470 | -8.42796 | 22071 ft | 387 kts | 13° |
| 2026-05-05 14:43 | 11.28109 | -8.42215 | 21646 ft | 386 kts | 13° |
| 2026-05-05 14:44 | 11.30720 | -8.41574 | 21212 ft | 384 kts | 14° |
| 2026-05-05 14:44 | 11.33284 | -8.40921 | 20780 ft | 381 kts | 15° |
| 2026-05-05 14:44 | 11.35846 | -8.40253 | 20346 ft | 377 kts | 16° |
| 2026-05-05 14:44 | 11.38365 | -8.39588 | 19918 ft | 372 kts | 16° |
| 2026-05-05 14:45 | 11.40857 | -8.38925 | 19493 ft | 367 kts | 16° |
| 2026-05-05 14:45 | 11.42497 | -8.38487 | 19215 ft | 364 kts | 16° |
| 2026-05-05 14:45 | 11.44943 | -8.37832 | 18803 ft | 361 kts | 17° |
| 2026-05-05 14:45 | 11.48178 | -8.36964 | 18260 ft | 360 kts | 17° |
| 2026-05-05 14:46 | 11.50599 | -8.36314 | 17850 ft | 359 kts | 17° |
| 2026-05-05 14:46 | 11.52218 | -8.35879 | 17574 ft | 358 kts | 17° |
| 2026-05-05 14:46 | 11.55418 | -8.35020 | 17029 ft | 355 kts | 17° |
| 2026-05-05 14:46 | 11.57804 | -8.34378 | 16634 ft | 351 kts | 18° |
| 2026-05-05 14:47 | 11.60162 | -8.33745 | 16243 ft | 347 kts | 18° |
| 2026-05-05 14:47 | 11.62493 | -8.33118 | 15854 ft | 344 kts | 18° |
| 2026-05-05 14:47 | 11.64798 | -8.32498 | 15470 ft | 341 kts | 18° |
| 2026-05-05 14:47 | 11.67119 | -8.31873 | 15082 ft | 338 kts | 18° |
| 2026-05-05 14:48 | 11.69394 | -8.31261 | 14703 ft | 337 kts | 17° |
| 2026-05-05 14:48 | 11.71654 | -8.30653 | 14320 ft | 335 kts | 18° |
| 2026-05-05 14:48 | 11.73906 | -8.30046 | 13939 ft | 333 kts | 18° |
| 2026-05-05 14:48 | 11.76163 | -8.29439 | 13553 ft | 331 kts | 18° |
| 2026-05-05 14:49 | 11.78378 | -8.28843 | 13172 ft | 328 kts | 18° |
| 2026-05-05 14:49 | 11.80584 | -8.28249 | 12792 ft | 326 kts | 18° |
| 2026-05-05 14:49 | 11.82772 | -8.27659 | 12402 ft | 324 kts | 17° |
| 2026-05-05 14:49 | 11.84944 | -8.27074 | 12018 ft | 322 kts | 17° |
| 2026-05-05 14:50 | 11.87125 | -8.26486 | 11629 ft | 320 kts | 17° |
| 2026-05-05 14:50 | 11.89279 | -8.25906 | 11247 ft | 319 kts | 17° |
| 2026-05-05 14:50 | 11.91411 | -8.25332 | 10878 ft | 317 kts | 17° |
| 2026-05-05 14:50 | 11.93544 | -8.24757 | 10506 ft | 316 kts | 17° |
| 2026-05-05 14:51 | 11.95677 | -8.24182 | 10137 ft | 315 kts | 17° |
| 2026-05-05 14:51 | 11.97748 | -8.23626 | 9693 ft | 296 kts | 17° |
| 2026-05-05 14:51 | 11.99689 | -8.23103 | 9475 ft | 284 kts | 18° |
| 2026-05-05 14:51 | 12.01600 | -8.22587 | 9214 ft | 279 kts | 18° |
| 2026-05-05 14:52 | 12.03455 | -8.22086 | 8981 ft | 274 kts | 18° |
| 2026-05-05 14:52 | 12.05298 | -8.21588 | 8758 ft | 274 kts | 17° |
| 2026-05-05 14:52 | 12.07153 | -8.21086 | 8534 ft | 276 kts | 17° |
| 2026-05-05 14:52 | 12.09019 | -8.20582 | 8287 ft | 276 kts | 17° |
| 2026-05-05 14:53 | 12.10880 | -8.20082 | 8035 ft | 275 kts | 17° |
| 2026-05-05 14:53 | 12.12728 | -8.19585 | 7787 ft | 272 kts | 17° |
| 2026-05-05 14:53 | 12.14558 | -8.19091 | 7541 ft | 271 kts | 17° |
| 2026-05-05 14:53 | 12.16402 | -8.18594 | 7297 ft | 271 kts | 17° |
| 2026-05-05 14:54 | 12.18222 | -8.18102 | 7039 ft | 272 kts | 17° |
| 2026-05-05 14:54 | 12.20050 | -8.17609 | 6756 ft | 271 kts | 17° |
| 2026-05-05 14:54 | 12.21883 | -8.17113 | 6474 ft | 269 kts | 17° |
| 2026-05-05 14:54 | 12.23705 | -8.16621 | 6191 ft | 268 kts | 17° |
| 2026-05-05 14:55 | 12.25503 | -8.16135 | 5920 ft | 266 kts | 17° |
| 2026-05-05 14:55 | 12.27308 | -8.15647 | 5653 ft | 265 kts | 17° |
| 2026-05-05 14:55 | 12.29098 | -8.15163 | 5378 ft | 265 kts | 17° |
| 2026-05-05 14:55 | 12.30867 | -8.14684 | 5094 ft | 265 kts | 17° |
| 2026-05-05 14:56 | 12.32666 | -8.14198 | 4783 ft | 264 kts | 17° |
| 2026-05-05 14:56 | 12.34441 | -8.13717 | 4471 ft | 263 kts | 17° |
| 2026-05-05 14:56 | 12.36212 | -8.13238 | 4158 ft | 261 kts | 17° |
| 2026-05-05 14:56 | 12.37960 | -8.12765 | 3852 ft | 260 kts | 17° |
| 2026-05-05 14:57 | 12.39719 | -8.12289 | 3570 ft | 258 kts | 17° |
| 2026-05-05 14:57 | 12.41434 | -8.11825 | 3401 ft | 251 kts | 17° |
| 2026-05-05 14:57 | 12.43029 | -8.11204 | 3218 ft | 241 kts | 41° |
| 2026-05-05 14:57 | 12.43967 | -8.09896 | 3264 ft | 219 kts | 64° |
| 2026-05-05 14:58 | 12.44660 | -8.08579 | 3225 ft | 205 kts | 60° |
| 2026-05-05 14:58 | 12.45376 | -8.07380 | 3237 ft | 186 kts | 59° |
| 2026-05-05 14:58 | 12.46032 | -8.06314 | 3191 ft | 164 kts | 58° |
| 2026-05-05 14:58 | 12.46602 | -8.05410 | 3140 ft | 145 kts | 58° |
| 2026-05-05 14:59 | 12.47140 | -8.04564 | 2977 ft | 139 kts | 58° |
| 2026-05-05 14:59 | 12.47667 | -8.03742 | 2801 ft | 137 kts | 57° |
| 2026-05-05 14:59 | 12.48193 | -8.02928 | 2639 ft | 138 kts | 58° |
| 2026-05-05 14:59 | 12.48730 | -8.02094 | 2475 ft | 139 kts | 56° |
| 2026-05-05 15:00 | 12.49263 | -8.01276 | 2313 ft | 139 kts | 57° |
| 2026-05-05 15:00 | 12.49622 | -8.00724 | 2196 ft | 139 kts | 56° |
| 2026-05-05 15:00 | 12.50341 | -7.99621 | 1968 ft | 140 kts | 57° |
| 2026-05-05 15:00 | 12.50886 | -7.98773 | 1811 ft | 143 kts | 55° |
| 2026-05-05 15:01 | 12.51430 | -7.97924 | 1625 ft | 143 kts | 54° |
| 2026-05-05 15:01 | 12.51990 | -7.97095 | 1425 ft | 142 kts | 54° |
| 2026-05-05 15:01 | 12.52549 | -7.96242 | 1285 ft | 147 kts | 54° |
| 2026-05-05 15:01 | 12.53107 | -7.95375 | 1217 ft | 138 kts | 56° |
| 2026-05-05 15:02 | 12.53506 | -7.94757 | 1239 ft | 70 kts | 55° |
| 2026-05-05 15:02 | 12.53684 | -7.94484 | 1249 ft | 19 kts | 55° |
| 2026-05-05 15:02 | 12.53733 | -7.94410 | 1250 ft | 11 kts | 56° |
| 2026-05-05 15:02 | 12.53772 | -7.94355 | 1252 ft | 7 kts | 45° |
| 2026-05-05 15:03 | 12.53804 | -7.94343 | 1253 ft | 3 kts | 356° |
| 2026-05-05 15:03 | 12.53839 | -7.94356 | 1254 ft | 7 kts | 327° |
| 2026-05-05 15:03 | 12.53885 | -7.94386 | 1255 ft | 7 kts | 327° |
| 2026-05-05 15:03 | 12.53924 | -7.94411 | 1256 ft | 6 kts | 328° |
| 2026-05-05 15:04 | 12.53958 | -7.94433 | 1256 ft | 5 kts | 328° |
| 2026-05-05 15:04 | 12.53991 | -7.94455 | 1257 ft | 5 kts | 323° |
| 2026-05-05 15:04 | 12.54021 | -7.94477 | 1258 ft | 5 kts | 323° |
| 2026-05-05 15:04 | 12.54049 | -7.94497 | 1258 ft | 4 kts | 327° |
| 2026-05-05 15:05 | 12.54087 | -7.94523 | 1258 ft | 0 kts | 327° |